createdAt,value
2019-03-12T00:00:55.658Z,6.10
2019-03-12T00:03:26.265Z,6.00
2019-03-12T00:05:52.703Z,6.00
2019-03-12T00:08:19.041Z,6.00
2019-03-12T00:10:46.732Z,5.90
2019-03-12T00:13:14.196Z,5.90
2019-03-12T00:15:40.285Z,5.90
2019-03-12T00:18:07.772Z,5.80
2019-03-12T00:20:41.146Z,5.80
2019-03-12T00:23:08.571Z,5.80
2019-03-12T00:25:35.836Z,5.80
2019-03-12T00:28:02.003Z,5.80
2019-03-12T00:30:28.033Z,5.90
2019-03-12T00:32:55.757Z,5.80
2019-03-12T00:35:24.586Z,5.80
2019-03-12T00:37:50.921Z,5.70
2019-03-12T00:40:17.202Z,5.70
2019-03-12T00:42:43.556Z,5.70
2019-03-12T00:45:11.465Z,5.70
2019-03-12T00:47:37.750Z,5.70
2019-03-12T00:50:06.813Z,5.70
2019-03-12T00:52:33.069Z,5.70
2019-03-12T00:55:01.025Z,5.70
2019-03-12T00:57:30.617Z,5.70
2019-03-12T00:59:57.560Z,5.70
2019-03-12T01:02:26.893Z,5.70
2019-03-12T01:04:53.952Z,5.70
2019-03-12T01:07:20.290Z,5.70
2019-03-12T01:09:46.647Z,5.70
2019-03-12T01:12:13.050Z,5.70
2019-03-12T01:14:39.196Z,5.70
2019-03-12T01:17:05.396Z,5.70
2019-03-12T01:19:32.341Z,5.70
2019-03-12T01:22:04.067Z,5.70
2019-03-12T01:24:30.180Z,5.70
2019-03-12T01:26:56.778Z,5.70
2019-03-12T01:29:23.027Z,5.70
2019-03-12T01:31:49.111Z,5.60
2019-03-12T01:34:15.304Z,5.60
2019-03-12T01:36:41.484Z,5.60
2019-03-12T01:39:08.109Z,5.50
2019-03-12T01:41:34.349Z,5.50
2019-03-12T01:44:02.571Z,5.60
2019-03-12T01:46:29.972Z,5.60
2019-03-12T01:48:56.209Z,5.60
2019-03-12T01:51:23.380Z,5.60
2019-03-12T01:53:49.510Z,5.60
2019-03-12T01:56:18.169Z,5.60
2019-03-12T01:58:44.292Z,5.60
2019-03-12T02:01:12.395Z,5.60
2019-03-12T02:03:40.466Z,5.50
2019-03-12T02:06:06.650Z,5.50
2019-03-12T02:08:34.791Z,5.50
2019-03-12T02:11:01.026Z,5.50
2019-03-12T02:13:27.121Z,5.40
2019-03-12T02:15:56.312Z,5.40
2019-03-12T02:18:22.539Z,5.40
2019-03-12T02:20:51.415Z,5.40
2019-03-12T02:23:17.651Z,5.40
2019-03-12T02:25:44.016Z,5.40
2019-03-12T02:28:10.913Z,5.40
2019-03-12T02:30:39.574Z,5.30
2019-03-12T02:33:06.762Z,5.30
2019-03-12T02:35:34.496Z,5.20
2019-03-12T02:38:00.555Z,5.20
2019-03-12T02:40:26.743Z,5.10
2019-03-12T02:42:55.273Z,5.10
2019-03-12T02:45:24.425Z,5.00
2019-03-12T02:47:50.833Z,5.00
2019-03-12T02:50:17.006Z,4.90
2019-03-12T02:52:44.451Z,4.90
2019-03-12T02:55:11.711Z,4.90
2019-03-12T02:57:39.410Z,4.80
2019-03-12T03:00:19.003Z,4.80
2019-03-12T03:02:45.230Z,4.80
2019-03-12T03:05:20.881Z,4.80
2019-03-12T03:07:49.535Z,4.80
2019-03-12T03:10:18.594Z,4.80
2019-03-12T03:12:45.160Z,4.70
2019-03-12T03:15:22.678Z,4.70
2019-03-12T03:17:48.834Z,4.70
2019-03-12T03:20:15.203Z,4.70
2019-03-12T03:22:43.590Z,4.70
2019-03-12T03:25:10.495Z,4.80
2019-03-12T03:27:36.697Z,4.70
2019-03-12T03:30:08.173Z,4.70
2019-03-12T03:32:36.137Z,4.60
2019-03-12T03:35:05.589Z,4.60
2019-03-12T03:37:34.125Z,4.50
2019-03-12T03:40:01.501Z,4.50
2019-03-12T03:42:28.402Z,4.50
2019-03-12T03:44:54.598Z,4.50
2019-03-12T03:47:22.063Z,4.50
2019-03-12T03:49:49.942Z,4.40
2019-03-12T03:52:16.042Z,4.40
2019-03-12T03:54:44.056Z,4.30
2019-03-12T03:57:11.194Z,4.30
2019-03-12T03:59:37.464Z,4.30
2019-03-12T04:02:06.856Z,4.30
2019-03-12T04:04:34.273Z,4.20
2019-03-12T04:07:02.631Z,4.20
2019-03-12T04:09:29.096Z,4.20
2019-03-12T04:11:55.421Z,4.20
2019-03-12T04:14:21.704Z,4.30
2019-03-12T04:16:48.095Z,4.30
2019-03-12T04:19:14.182Z,4.30
2019-03-12T04:21:40.431Z,4.20
2019-03-12T04:24:08.464Z,4.20
2019-03-12T04:26:34.744Z,4.20
2019-03-12T04:29:03.192Z,4.20
2019-03-12T04:31:29.389Z,4.30
2019-03-12T04:34:02.485Z,4.20
2019-03-12T04:36:28.696Z,4.20
2019-03-12T04:38:56.659Z,4.10
2019-03-12T04:41:24.740Z,4.00
2019-03-12T04:43:51.823Z,4.00
2019-03-12T04:46:18.069Z,3.90
2019-03-12T04:48:44.080Z,3.80
2019-03-12T04:51:10.229Z,3.80
2019-03-12T04:53:39.591Z,3.80
2019-03-12T04:56:07.853Z,3.90
2019-03-12T04:58:35.084Z,3.80
2019-03-12T05:01:01.622Z,3.80
2019-03-12T05:03:27.794Z,3.80
2019-03-12T05:05:55.548Z,3.70
2019-03-12T05:08:21.708Z,3.70
2019-03-12T05:10:48.659Z,3.70
2019-03-12T05:13:14.841Z,3.70
2019-03-12T05:15:44.370Z,3.70
2019-03-12T05:18:10.489Z,3.70
2019-03-12T05:20:42.997Z,3.60
2019-03-12T05:23:11.809Z,3.60
2019-03-12T05:25:37.922Z,3.60
2019-03-12T05:28:08.599Z,3.50
2019-03-12T05:30:32.325Z,3.40
2019-03-12T05:32:58.746Z,3.40
2019-03-12T05:35:27.897Z,3.40
2019-03-12T05:37:54.099Z,3.40
2019-03-12T05:40:23.284Z,3.40
2019-03-12T05:42:49.603Z,3.30
2019-03-12T05:45:19.955Z,3.30
2019-03-12T05:47:48.328Z,3.40
2019-03-12T05:50:15.819Z,3.40
2019-03-12T05:52:42.217Z,3.30
2019-03-12T05:55:12.071Z,3.30
2019-03-12T05:57:39.146Z,3.20
2019-03-12T06:00:09.085Z,3.10
2019-03-12T06:02:35.681Z,3.10
2019-03-12T06:05:06.698Z,3.20
2019-03-12T06:07:36.007Z,3.10
2019-03-12T06:10:06.654Z,3.10
2019-03-12T06:12:36.584Z,3.10
2019-03-12T06:15:06.569Z,3.20
2019-03-12T06:17:32.623Z,3.20
2019-03-12T06:19:58.714Z,3.20
2019-03-12T06:22:24.882Z,3.20
2019-03-12T06:24:52.615Z,3.30
2019-03-12T06:27:19.868Z,3.30
2019-03-12T06:29:47.991Z,3.20
2019-03-12T06:32:16.491Z,3.20
2019-03-12T06:34:47.459Z,3.30
2019-03-12T06:37:15.601Z,3.30
2019-03-12T06:39:46.057Z,3.30
2019-03-12T06:42:15.299Z,3.30
2019-03-12T06:44:46.684Z,3.30
2019-03-12T06:47:25.095Z,3.30
2019-03-12T06:50:02.083Z,3.30
2019-03-12T06:52:48.981Z,3.30
2019-03-12T06:55:17.058Z,3.40
2019-03-12T06:57:59.343Z,3.40
2019-03-12T07:00:42.257Z,3.40
2019-03-12T07:03:26.507Z,3.40
2019-03-12T07:05:57.513Z,3.50
2019-03-12T07:08:28.408Z,3.60
2019-03-12T07:10:58.205Z,3.50
2019-03-12T07:13:32.624Z,3.50
2019-03-12T07:16:02.174Z,3.50
2019-03-12T07:18:32.839Z,3.60
2019-03-12T07:21:10.643Z,3.60
2019-03-12T07:23:41.802Z,3.60
2019-03-12T07:26:09.883Z,3.70
2019-03-12T07:28:50.020Z,3.70
2019-03-12T07:31:24.623Z,3.70
2019-03-12T07:34:10.315Z,3.70
2019-03-12T07:36:38.726Z,3.80
2019-03-12T07:39:28.376Z,3.80
2019-03-12T07:42:17.487Z,3.80
2019-03-12T07:44:54.415Z,3.90
2019-03-12T07:47:36.182Z,4.00
2019-03-12T07:50:23.528Z,4.00
2019-03-12T07:53:01.602Z,4.10
2019-03-12T07:55:44.585Z,4.10
2019-03-12T07:58:20.709Z,4.10
2019-03-12T08:00:50.011Z,4.30
2019-03-12T08:03:27.669Z,4.40
2019-03-12T08:05:57.024Z,4.30
2019-03-12T08:08:41.856Z,4.50
2019-03-12T08:11:17.377Z,4.60
2019-03-12T08:13:45.508Z,4.70
2019-03-12T08:16:13.644Z,4.70
2019-03-12T08:18:43.699Z,4.70
2019-03-12T08:21:22.469Z,4.90
2019-03-12T08:23:52.832Z,4.90
2019-03-12T08:26:24.830Z,4.90
2019-03-12T08:29:01.896Z,5.10
2019-03-12T08:31:46.656Z,5.10
2019-03-12T08:34:20.813Z,5.20
2019-03-12T08:36:52.856Z,5.20
2019-03-12T08:39:23.993Z,5.30
2019-03-12T08:41:54.526Z,5.50
2019-03-12T08:44:41.501Z,5.60
2019-03-12T08:47:26.712Z,5.70
2019-03-12T08:50:14.883Z,5.70
2019-03-12T08:52:51.844Z,5.80
2019-03-12T08:55:29.060Z,5.80
2019-03-12T08:58:01.975Z,5.80
2019-03-12T09:00:36.227Z,5.80
2019-03-12T09:03:14.435Z,6.00
2019-03-12T09:05:50.571Z,6.00
2019-03-12T09:08:31.011Z,6.00
2019-03-12T09:11:09.266Z,6.20
2019-03-12T09:13:54.269Z,6.20
2019-03-12T09:16:22.318Z,6.30
2019-03-12T09:18:51.693Z,6.30
2019-03-12T09:21:30.121Z,6.30
2019-03-12T09:23:59.906Z,6.30
2019-03-12T09:26:31.492Z,6.40
2019-03-12T09:29:06.450Z,6.50
2019-03-12T09:31:34.571Z,6.50
2019-03-12T09:34:20.173Z,6.70
2019-03-12T09:36:54.284Z,6.80
2019-03-12T09:39:23.749Z,6.90
2019-03-12T09:41:53.956Z,7.00
2019-03-12T09:44:24.151Z,7.00
2019-03-12T09:47:07.108Z,7.10
2019-03-12T09:49:39.838Z,7.20
2019-03-12T09:52:07.955Z,7.30
2019-03-12T09:54:37.258Z,7.50
2019-03-12T09:57:11.143Z,7.50
2019-03-12T09:59:50.260Z,7.40
2019-03-12T10:02:21.090Z,7.60
2019-03-12T10:05:00.530Z,7.80
2019-03-12T10:07:46.702Z,7.80
2019-03-12T10:10:25.784Z,7.70
2019-03-12T10:13:10.389Z,7.80
2019-03-12T10:15:59.416Z,8.00
2019-03-12T10:18:33.830Z,8.20
2019-03-12T10:21:19.847Z,8.20
2019-03-12T10:24:04.482Z,8.20
2019-03-12T10:26:38.509Z,8.30
2019-03-12T10:29:23.270Z,8.40
2019-03-12T10:32:00.280Z,8.60
2019-03-12T10:34:31.359Z,8.60
2019-03-12T10:37:11.369Z,8.50
2019-03-12T10:39:51.922Z,8.50
2019-03-12T10:42:38.031Z,8.40
2019-03-12T10:45:21.064Z,8.40
2019-03-12T10:47:52.116Z,8.50
2019-03-12T10:50:19.555Z,8.40
2019-03-12T10:52:46.156Z,8.40
2019-03-12T10:55:13.896Z,8.40
2019-03-12T10:57:43.629Z,8.40
2019-03-12T11:00:17.490Z,8.40
2019-03-12T11:02:45.753Z,8.50
2019-03-12T11:05:12.145Z,8.60
2019-03-12T11:07:38.405Z,8.50
2019-03-12T11:10:13.731Z,8.50
2019-03-12T11:12:41.077Z,8.60
2019-03-12T11:15:10.894Z,8.80
2019-03-12T11:17:48.767Z,8.90
2019-03-12T11:20:08.921Z,8.90
2019-03-12T11:22:35.157Z,8.90
2019-03-12T11:25:02.140Z,8.90
2019-03-12T11:27:28.242Z,9.00
2019-03-12T11:29:54.383Z,8.90
2019-03-12T11:32:23.666Z,8.70
2019-03-12T11:34:50.318Z,8.80
2019-03-12T11:37:16.360Z,8.90
2019-03-12T11:39:47.120Z,9.00
2019-03-12T11:42:15.551Z,8.90
2019-03-12T11:44:42.386Z,9.00
2019-03-12T11:47:08.599Z,8.90
2019-03-12T11:49:34.769Z,8.90
2019-03-12T11:52:01.207Z,8.90
2019-03-12T11:54:27.516Z,9.00
2019-03-12T11:56:55.736Z,9.20
2019-03-12T11:59:26.715Z,9.10
2019-03-12T12:01:54.824Z,9.10
2019-03-12T12:04:21.234Z,9.10
2019-03-12T12:06:48.389Z,9.10
2019-03-12T12:09:15.672Z,9.10
2019-03-12T12:11:41.853Z,9.10
2019-03-12T12:14:09.762Z,9.10
2019-03-12T12:16:39.567Z,9.10
2019-03-12T12:19:05.989Z,9.10
2019-03-12T12:21:34.674Z,9.10
2019-03-12T12:24:01.701Z,8.80
2019-03-12T12:26:29.236Z,9.00
2019-03-12T12:28:57.414Z,9.10
2019-03-12T12:31:24.369Z,9.20
2019-03-12T12:33:50.658Z,9.20
2019-03-12T12:36:18.168Z,9.30
2019-03-12T12:38:44.368Z,9.20
2019-03-12T12:41:12.232Z,9.20
2019-03-12T12:43:38.860Z,9.20
2019-03-12T12:46:06.584Z,9.10
2019-03-12T12:48:34.932Z,9.30
2019-03-12T12:51:03.545Z,9.40
2019-03-12T12:53:30.561Z,9.40
2019-03-12T12:55:58.562Z,9.50
2019-03-12T12:58:27.592Z,9.60
2019-03-12T13:00:53.802Z,9.60
2019-03-12T13:03:19.977Z,9.50
2019-03-12T13:05:46.166Z,9.50
2019-03-12T13:08:12.690Z,9.50
2019-03-12T13:10:39.125Z,9.60
2019-03-12T13:13:28.091Z,9.70
2019-03-12T13:15:54.510Z,9.80
2019-03-12T13:18:24.443Z,10.00
2019-03-12T13:20:50.637Z,10.20
2019-03-12T13:23:18.224Z,10.40
2019-03-12T13:25:46.523Z,10.40
2019-03-12T13:28:13.400Z,10.40
2019-03-12T13:30:41.479Z,10.80
2019-03-12T13:33:07.638Z,10.90
2019-03-12T13:35:36.124Z,11.10
2019-03-12T13:38:02.471Z,11.30
2019-03-12T13:40:28.885Z,11.30
2019-03-12T13:42:55.034Z,11.20
2019-03-12T13:45:23.336Z,11.10
2019-03-12T13:47:49.616Z,11.00
2019-03-12T13:50:16.639Z,11.00
2019-03-12T13:52:42.827Z,10.80
2019-03-12T13:55:10.737Z,10.60
2019-03-12T13:57:37.386Z,10.50
2019-03-12T14:00:16.248Z,10.40
2019-03-12T14:02:44.865Z,10.40
2019-03-12T14:05:12.185Z,10.40
2019-03-12T14:07:38.540Z,10.50
2019-03-12T14:10:08.496Z,10.50
2019-03-12T14:12:36.813Z,10.60
2019-03-12T14:15:06.791Z,10.30
2019-03-12T14:17:33.331Z,10.50
2019-03-12T14:20:05.809Z,10.50
2019-03-12T14:22:32.326Z,10.30
2019-03-12T14:24:58.528Z,10.20
2019-03-12T14:27:26.642Z,10.20
2019-03-12T14:29:52.790Z,10.20
2019-03-12T14:32:19.535Z,10.20
2019-03-12T14:34:45.583Z,10.20
2019-03-12T14:37:11.660Z,10.40
2019-03-12T14:39:37.731Z,10.70
2019-03-12T14:42:05.399Z,11.00
2019-03-12T14:44:32.630Z,11.10
2019-03-12T14:46:58.906Z,11.30
2019-03-12T14:49:25.913Z,11.50
2019-03-12T14:52:01.615Z,11.50
2019-03-12T14:54:37.923Z,11.30
2019-03-12T14:57:03.596Z,11.30
2019-03-12T14:59:29.770Z,11.30
2019-03-12T15:01:55.978Z,11.40
2019-03-12T15:04:22.268Z,11.60
2019-03-12T15:06:50.132Z,11.60
2019-03-12T15:09:17.549Z,11.50
2019-03-12T15:11:46.357Z,11.50
2019-03-12T15:14:15.058Z,11.50
2019-03-12T15:16:42.232Z,11.40
2019-03-12T15:19:08.498Z,11.40
2019-03-12T15:21:35.617Z,11.50
2019-03-12T15:24:05.307Z,11.60
2019-03-12T15:26:32.529Z,11.70
2019-03-12T15:28:58.716Z,11.70
2019-03-12T15:31:26.727Z,11.70
2019-03-12T15:33:53.101Z,11.50
2019-03-12T15:36:19.449Z,11.40
2019-03-12T15:38:46.640Z,11.30
2019-03-12T15:41:12.811Z,11.20
2019-03-12T15:43:42.371Z,11.30
2019-03-12T15:46:09.260Z,11.40
2019-03-12T15:49:04.776Z,11.50
2019-03-12T15:51:30.882Z,11.30
2019-03-12T15:54:00.071Z,11.30
2019-03-12T15:56:26.639Z,11.10
2019-03-12T15:58:54.984Z,11.00
2019-03-12T16:01:21.347Z,11.00
2019-03-12T16:03:49.243Z,10.90
2019-03-12T16:06:15.690Z,10.80
2019-03-12T16:08:42.071Z,10.70
2019-03-12T16:11:08.421Z,10.70
2019-03-12T16:13:34.720Z,10.60
2019-03-12T16:16:00.816Z,10.40
2019-03-12T16:18:27.086Z,10.40
2019-03-12T16:20:54.531Z,10.30
2019-03-12T16:23:20.753Z,10.30
2019-03-12T16:25:47.856Z,10.20
2019-03-12T16:28:16.156Z,10.10
2019-03-12T16:30:42.637Z,10.10
2019-03-12T16:33:11.835Z,10.10
2019-03-12T16:35:42.029Z,10.10
2019-03-12T16:38:15.413Z,10.20
2019-03-12T16:40:42.822Z,10.10
2019-03-12T16:43:11.133Z,10.10
2019-03-12T16:45:37.400Z,10.10
2019-03-12T16:48:03.565Z,10.00
2019-03-12T16:50:29.679Z,10.10
2019-03-12T16:52:57.837Z,10.00
2019-03-12T16:55:24.569Z,10.00
2019-03-12T16:57:51.257Z,9.90
2019-03-12T17:00:18.894Z,9.90
2019-03-12T17:02:45.129Z,10.00
2019-03-12T17:05:11.398Z,9.90
2019-03-12T17:07:37.728Z,9.80
2019-03-12T17:10:07.727Z,9.80
2019-03-12T17:12:35.358Z,9.90
2019-03-12T17:15:01.565Z,9.80
2019-03-12T17:17:31.272Z,9.90
2019-03-12T17:19:59.228Z,9.80
2019-03-12T17:22:27.819Z,9.80
2019-03-12T17:24:59.952Z,9.80
2019-03-12T17:27:27.528Z,9.80
2019-03-12T17:29:54.718Z,9.80
2019-03-12T17:32:23.217Z,9.80
2019-03-12T17:34:49.400Z,9.80
2019-03-12T17:37:16.722Z,9.80
2019-03-12T17:39:43.429Z,9.80
2019-03-12T17:42:09.565Z,9.80
2019-03-12T17:44:35.990Z,9.80
2019-03-12T17:47:05.241Z,9.80
2019-03-12T17:49:31.655Z,9.80
2019-03-12T17:52:01.087Z,9.80
2019-03-12T17:54:31.846Z,9.80
2019-03-12T17:56:58.027Z,9.80
2019-03-12T17:59:26.227Z,9.80
2019-03-12T18:01:52.804Z,9.80
2019-03-12T18:04:19.504Z,9.90
2019-03-12T18:06:47.461Z,9.90
2019-03-12T18:09:16.222Z,9.80
2019-03-12T18:11:42.381Z,9.80
2019-03-12T18:14:08.712Z,9.90
2019-03-12T18:16:40.946Z,9.90
2019-03-12T18:19:03.481Z,9.90
2019-03-12T18:21:29.575Z,10.00
2019-03-12T18:23:56.533Z,9.90
2019-03-12T18:26:22.617Z,9.90
2019-03-12T18:28:49.237Z,9.90
2019-03-12T18:31:17.611Z,10.00
2019-03-12T18:33:43.983Z,10.00
2019-03-12T18:36:10.275Z,10.00
2019-03-12T18:38:36.814Z,10.00
2019-03-12T18:41:03.076Z,10.00
2019-03-12T18:43:29.307Z,10.00
2019-03-12T18:45:55.609Z,10.10
2019-03-12T18:48:23.709Z,10.10
2019-03-12T18:50:52.619Z,10.10
2019-03-12T18:53:20.866Z,10.10
2019-03-12T18:55:54.642Z,10.20
2019-03-12T18:58:26.563Z,10.20
2019-03-12T19:00:52.963Z,10.20
2019-03-12T19:03:19.413Z,10.20
2019-03-12T19:05:46.291Z,10.20
2019-03-12T19:08:12.681Z,10.30
2019-03-12T19:10:39.575Z,10.30
2019-03-12T19:13:05.749Z,10.30
2019-03-12T19:15:32.542Z,10.30
2019-03-12T19:17:58.596Z,10.30
2019-03-12T19:20:27.821Z,10.30
2019-03-12T19:22:54.383Z,10.30
2019-03-12T19:25:23.013Z,10.30
2019-03-12T19:27:59.665Z,10.40
2019-03-12T19:30:20.723Z,10.40
2019-03-12T19:32:54.946Z,10.40
2019-03-12T19:35:24.051Z,10.50
2019-03-12T19:37:51.162Z,10.50
2019-03-12T19:40:33.187Z,10.50
2019-03-12T19:43:01.200Z,10.50
2019-03-12T19:45:28.002Z,10.60
2019-03-12T19:47:57.548Z,10.60
2019-03-12T19:50:24.180Z,10.60
2019-03-12T19:52:51.227Z,10.60
2019-03-12T19:55:28.949Z,10.70
2019-03-12T19:57:58.243Z,10.70
2019-03-12T20:00:25.741Z,10.70
2019-03-12T20:02:55.769Z,10.70
2019-03-12T20:05:21.980Z,10.70
2019-03-12T20:07:51.790Z,10.80
2019-03-12T20:10:40.852Z,10.80
2019-03-12T20:13:28.326Z,10.80
2019-03-12T20:16:15.978Z,10.80
2019-03-12T20:19:11.698Z,10.70
2019-03-12T20:22:13.440Z,10.80
2019-03-12T20:25:19.762Z,10.80
2019-03-12T20:28:25.156Z,10.80
2019-03-12T20:31:30.145Z,10.90
2019-03-12T20:34:23.701Z,10.90
2019-03-12T20:37:09.752Z,11.00
2019-03-12T20:40:08.986Z,11.00
2019-03-12T20:42:57.661Z,10.90
2019-03-12T20:46:00.802Z,10.90
2019-03-12T20:49:10.326Z,10.90
2019-03-12T20:51:45.308Z,11.00
2019-03-12T20:54:51.027Z,11.00
2019-03-12T20:57:43.265Z,11.00
2019-03-12T21:00:44.716Z,11.00
2019-03-12T21:03:47.722Z,11.00
2019-03-12T21:06:37.923Z,11.00
2019-03-12T21:13:08.070Z,11.00
2019-03-12T21:15:52.887Z,11.00
2019-03-12T21:18:41.664Z,11.00
2019-03-12T21:21:26.630Z,11.00
2019-03-12T21:24:14.784Z,11.00
2019-03-12T21:27:01.421Z,11.00
2019-03-12T21:29:51.588Z,11.00
2019-03-12T21:32:18.065Z,11.00
2019-03-12T21:34:44.553Z,11.00
2019-03-12T21:37:12.916Z,11.00
2019-03-12T21:39:53.798Z,10.90
2019-03-12T21:42:07.677Z,10.90
2019-03-12T21:44:38.760Z,10.90
2019-03-12T21:47:04.978Z,10.90
2019-03-12T21:49:31.248Z,10.80
2019-03-12T21:52:00.378Z,10.80
2019-03-12T21:54:26.553Z,10.80
2019-03-12T21:56:56.017Z,10.80
2019-03-12T21:59:22.044Z,10.80
2019-03-12T22:01:54.251Z,10.80
2019-03-12T22:04:18.796Z,10.80
2019-03-12T22:06:47.293Z,10.70
2019-03-12T22:09:15.562Z,10.70
2019-03-12T22:11:44.076Z,10.60
2019-03-12T22:14:18.860Z,10.60
2019-03-12T22:16:50.779Z,10.50
2019-03-12T22:19:17.188Z,10.50
2019-03-12T22:21:55.154Z,10.50
2019-03-12T22:24:24.057Z,10.40
2019-03-12T22:26:55.293Z,10.40
2019-03-12T22:29:18.931Z,10.40
2019-03-12T22:31:47.522Z,10.40
2019-03-12T22:34:14.456Z,10.40
2019-03-12T22:36:44.014Z,10.40
2019-03-12T22:39:10.379Z,10.50
2019-03-12T22:41:37.008Z,10.50
2019-03-12T22:44:09.047Z,10.40
2019-03-12T22:46:35.329Z,10.50
2019-03-12T22:49:04.039Z,10.50
2019-03-12T22:51:33.176Z,10.50
2019-03-12T22:54:05.505Z,10.50
2019-03-12T22:56:32.911Z,10.50
2019-03-12T22:59:10.597Z,10.50
2019-03-12T23:01:37.199Z,10.50
2019-03-12T23:04:03.305Z,10.50
2019-03-12T23:06:33.883Z,10.60
2019-03-12T23:09:02.206Z,10.60
2019-03-12T23:11:36.144Z,10.60
2019-03-12T23:14:02.358Z,10.60
2019-03-12T23:16:28.689Z,10.60
2019-03-12T23:18:57.580Z,10.70
2019-03-12T23:21:24.002Z,10.70
2019-03-12T23:23:50.235Z,10.70
2019-03-12T23:26:19.214Z,10.70
2019-03-12T23:28:48.008Z,10.60
2019-03-12T23:31:15.907Z,10.60
2019-03-12T23:33:44.207Z,10.50
2019-03-12T23:36:10.278Z,10.50
2019-03-12T23:38:38.314Z,10.40
2019-03-12T23:41:06.580Z,10.30
2019-03-12T23:43:33.086Z,10.40
2019-03-12T23:45:59.386Z,10.20
2019-03-12T23:48:25.809Z,10.10
2019-03-12T23:50:52.924Z,10.00
2019-03-12T23:53:19.396Z,9.90
2019-03-12T23:55:47.511Z,9.60
2019-03-12T23:58:14.785Z,8.90
